sensor_id;sensor_type;location;lat;lon;timestamp;pressure;altitude;pressure_sealevel;temperature;humidity
72798;BME280;61084;55.816;37.036;2022-12-18T00:00:32;99017.81;;;-2.70;71.15
72798;BME280;61084;55.816;37.036;2022-12-18T00:02:58;99018.66;;;-2.74;71.14
72798;BME280;61084;55.816;37.036;2022-12-18T00:05:24;99017.00;;;-2.76;70.91
72798;BME280;61084;55.816;37.036;2022-12-18T00:07:50;99012.72;;;-2.77;71.18
72798;BME280;61084;55.816;37.036;2022-12-18T00:10:15;99005.91;;;-2.81;71.07
72798;BME280;61084;55.816;37.036;2022-12-18T00:12:41;99008.44;;;-2.80;71.08
72798;BME280;61084;55.816;37.036;2022-12-18T00:15:08;99011.00;;;-2.77;71.22
72798;BME280;61084;55.816;37.036;2022-12-18T00:17:34;99005.88;;;-2.80;71.39
72798;BME280;61084;55.816;37.036;2022-12-18T00:19:59;99001.66;;;-2.88;71.62
72798;BME280;61084;55.816;37.036;2022-12-18T00:22:25;98990.56;;;-2.92;71.60
72798;BME280;61084;55.816;37.036;2022-12-18T00:24:51;98989.69;;;-2.92;71.25
72798;BME280;61084;55.816;37.036;2022-12-18T00:27:16;98986.28;;;-2.91;71.25
72798;BME280;61084;55.816;37.036;2022-12-18T00:29:42;98989.72;;;-2.94;71.37
72798;BME280;61084;55.816;37.036;2022-12-18T00:32:08;98986.28;;;-2.93;71.42
72798;BME280;61084;55.816;37.036;2022-12-18T00:34:34;98983.72;;;-2.90;71.53
72798;BME280;61084;55.816;37.036;2022-12-18T00:37:00;98978.53;;;-2.84;70.84
72798;BME280;61084;55.816;37.036;2022-12-18T00:39:25;98975.13;;;-2.89;71.26
72798;BME280;61084;55.816;37.036;2022-12-18T00:41:51;98975.13;;;-2.90;71.23
72798;BME280;61084;55.816;37.036;2022-12-18T00:44:36;98978.63;;;-2.96;71.27
72798;BME280;61084;55.816;37.036;2022-12-18T00:47:01;98962.34;;;-2.95;71.35
72798;BME280;61084;55.816;37.036;2022-12-18T00:49:27;98964.03;;;-2.92;71.14
72798;BME280;61084;55.816;37.036;2022-12-18T00:51:54;98959.75;;;-2.93;71.41
72798;BME280;61084;55.816;37.036;2022-12-18T00:54:20;98954.66;;;-2.96;71.56
72798;BME280;61084;55.816;37.036;2022-12-18T00:56:45;98953.78;;;-2.97;71.18
72798;BME280;61084;55.816;37.036;2022-12-18T00:59:11;98957.25;;;-2.98;71.17
72798;BME280;61084;55.816;37.036;2022-12-18T01:01:38;98954.69;;;-2.98;71.25
72798;BME280;61084;55.816;37.036;2022-12-18T01:04:05;98959.78;;;-2.96;71.15
72798;BME280;61084;55.816;37.036;2022-12-18T01:06:31;98942.66;;;-2.97;71.12
72798;BME280;61084;55.816;37.036;2022-12-18T01:08:57;98938.41;;;-3.01;70.93
72798;BME280;61084;55.816;37.036;2022-12-18T01:11:23;98938.44;;;-3.03;71.38
72798;BME280;61084;55.816;37.036;2022-12-18T01:13:49;98941.00;;;-3.01;71.16
72798;BME280;61084;55.816;37.036;2022-12-18T01:16:16;98934.19;;;-3.07;71.22
72798;BME280;61084;55.816;37.036;2022-12-18T01:18:43;98949.63;;;-3.12;70.86
72798;BME280;61084;55.816;37.036;2022-12-18T01:21:11;98943.59;;;-3.08;71.14
72798;BME280;61084;55.816;37.036;2022-12-18T01:23:37;98937.59;;;-3.07;71.04
72798;BME280;61084;55.816;37.036;2022-12-18T01:26:09;98940.16;;;-3.07;70.99
72798;BME280;61084;55.816;37.036;2022-12-18T01:28:35;98933.38;;;-3.12;71.15
72798;BME280;61084;55.816;37.036;2022-12-18T01:31:16;98931.66;;;-3.12;71.07
72798;BME280;61084;55.816;37.036;2022-12-18T01:33:43;98935.03;;;-3.05;71.10
72798;BME280;61084;55.816;37.036;2022-12-18T01:36:21;98940.16;;;-3.07;71.07
72798;BME280;61084;55.816;37.036;2022-12-18T01:38:49;98943.63;;;-3.09;71.15
72798;BME280;61084;55.816;37.036;2022-12-18T01:41:16;98941.09;;;-3.18;71.33
72798;BME280;61084;55.816;37.036;2022-12-18T01:43:50;98941.13;;;-3.23;71.12
72798;BME280;61084;55.816;37.036;2022-12-18T01:46:17;98940.25;;;-3.22;71.38
72798;BME280;61084;55.816;37.036;2022-12-18T01:48:46;98934.28;;;-3.21;71.06
72798;BME280;61084;55.816;37.036;2022-12-18T01:51:13;98930.91;;;-3.29;71.10
72798;BME280;61084;55.816;37.036;2022-12-18T01:53:41;98936.88;;;-3.28;71.18
72798;BME280;61084;55.816;37.036;2022-12-18T01:56:08;98937.75;;;-3.31;71.41
72798;BME280;61084;55.816;37.036;2022-12-18T01:58:50;98935.19;;;-3.31;71.37
72798;BME280;61084;55.816;37.036;2022-12-18T02:01:18;98939.44;;;-3.28;71.38
72798;BME280;61084;55.816;37.036;2022-12-18T02:03:45;98937.72;;;-3.25;71.54
72798;BME280;61084;55.816;37.036;2022-12-18T02:06:21;98936.03;;;-3.29;71.57
72798;BME280;61084;55.816;37.036;2022-12-18T02:14:17;98936.03;;;-3.29;71.50
72798;BME280;61084;55.816;37.036;2022-12-18T02:19:44;98929.19;;;-3.27;71.31
72798;BME280;61084;55.816;37.036;2022-12-18T02:22:19;98928.34;;;-3.32;71.03
72798;BME280;61084;55.816;37.036;2022-12-18T02:25:28;98934.31;;;-3.27;71.33
72798;BME280;61084;55.816;37.036;2022-12-18T02:28:00;98948.88;;;-3.32;71.37
72798;BME280;61084;55.816;37.036;2022-12-18T02:30:30;98946.31;;;-3.35;71.39
72798;BME280;61084;55.816;37.036;2022-12-18T02:32:57;98944.63;;;-3.37;71.22
72798;BME280;61084;55.816;37.036;2022-12-18T02:35:27;98942.09;;;-3.42;71.44
72798;BME280;61084;55.816;37.036;2022-12-18T02:37:58;98947.19;;;-3.40;71.49
72798;BME280;61084;55.816;37.036;2022-12-18T02:40:27;98948.06;;;-3.40;71.27
72798;BME280;61084;55.816;37.036;2022-12-18T02:42:54;98949.72;;;-3.33;71.37
72798;BME280;61084;55.816;37.036;2022-12-18T02:45:20;98942.06;;;-3.37;71.38
72798;BME280;61084;55.816;37.036;2022-12-18T02:47:48;98949.78;;;-3.42;71.22
72798;BME280;61084;55.816;37.036;2022-12-18T02:53:24;98941.25;;;-3.47;71.31
72798;BME280;61084;55.816;37.036;2022-12-18T02:56:19;98940.38;;;-3.47;71.14
72798;BME280;61084;55.816;37.036;2022-12-18T02:59:06;98944.72;;;-3.52;71.30
72798;BME280;61084;55.816;37.036;2022-12-18T03:06:51;98934.47;;;-3.60;71.42
72798;BME280;61084;55.816;37.036;2022-12-18T03:09:41;98930.19;;;-3.61;71.14
72798;BME280;61084;55.816;37.036;2022-12-18T03:15:13;98939.59;;;-3.55;71.27
72798;BME280;61084;55.816;37.036;2022-12-18T03:17:46;98926.75;;;-3.58;71.43
72798;BME280;61084;55.816;37.036;2022-12-18T03:20:15;98930.22;;;-3.62;71.06
72798;BME280;61084;55.816;37.036;2022-12-18T03:22:46;98925.09;;;-3.71;71.26
72798;BME280;61084;55.816;37.036;2022-12-18T03:25:16;98943.06;;;-3.76;71.82
72798;BME280;61084;55.816;37.036;2022-12-18T03:27:48;98939.66;;;-3.72;71.53
72798;BME280;61084;55.816;37.036;2022-12-18T03:30:16;98949.03;;;-3.69;71.51
72798;BME280;61084;55.816;37.036;2022-12-18T03:33:08;98959.28;;;-3.65;71.45
72798;BME280;61084;55.816;37.036;2022-12-18T03:35:41;98949.03;;;-3.71;71.35
72798;BME280;61084;55.816;37.036;2022-12-18T03:38:10;98942.22;;;-3.70;71.62
72798;BME280;61084;55.816;37.036;2022-12-18T03:40:59;98941.31;;;-3.65;71.21
72798;BME280;61084;55.816;37.036;2022-12-18T03:43:51;98944.75;;;-3.64;71.41
72798;BME280;61084;55.816;37.036;2022-12-18T03:46:30;98944.78;;;-3.72;71.53
72798;BME280;61084;55.816;37.036;2022-12-18T03:51:58;98955.00;;;-3.67;71.63
72798;BME280;61084;55.816;37.036;2022-12-18T03:54:28;98964.41;;;-3.62;71.43
72798;BME280;61084;55.816;37.036;2022-12-18T03:57:13;98968.66;;;-3.59;71.29
72798;BME280;61084;55.816;37.036;2022-12-18T03:59:43;98956.69;;;-3.60;71.11
72798;BME280;61084;55.816;37.036;2022-12-18T04:02:11;98973.78;;;-3.59;71.12
72798;BME280;61084;55.816;37.036;2022-12-18T04:04:39;98974.66;;;-3.62;71.24
72798;BME280;61084;55.816;37.036;2022-12-18T04:07:06;98977.22;;;-3.65;71.15
72798;BME280;61084;55.816;37.036;2022-12-18T04:09:36;98991.75;;;-3.67;71.17
72798;BME280;61084;55.816;37.036;2022-12-18T04:12:03;98990.06;;;-3.68;71.32
72798;BME280;61084;55.816;37.036;2022-12-18T04:14:29;98997.75;;;-3.74;71.10
72798;BME280;61084;55.816;37.036;2022-12-18T04:16:56;99008.88;;;-3.75;71.20
72798;BME280;61084;55.816;37.036;2022-12-18T04:19:28;99010.59;;;-3.80;71.31
72798;BME280;61084;55.816;37.036;2022-12-18T04:21:54;99003.78;;;-3.81;71.19
72798;BME280;61084;55.816;37.036;2022-12-18T04:24:20;99008.03;;;-3.82;70.94
72798;BME280;61084;55.816;37.036;2022-12-18T04:27:00;99008.88;;;-3.83;71.03
72798;BME280;61084;55.816;37.036;2022-12-18T04:29:31;99000.34;;;-3.78;71.01
72798;BME280;61084;55.816;37.036;2022-12-18T04:31:58;99000.34;;;-3.80;71.20
72798;BME280;61084;55.816;37.036;2022-12-18T04:34:25;98993.53;;;-3.86;71.25
72798;BME280;61084;55.816;37.036;2022-12-18T04:36:52;98996.97;;;-3.90;71.17
72798;BME280;61084;55.816;37.036;2022-12-18T04:39:20;99000.38;;;-3.92;71.34
72798;BME280;61084;55.816;37.036;2022-12-18T04:41:48;98999.50;;;-3.91;71.15
72798;BME280;61084;55.816;37.036;2022-12-18T04:44:13;99008.94;;;-3.96;71.83
72798;BME280;61084;55.816;37.036;2022-12-18T04:46:40;99011.50;;;-3.96;71.54
72798;BME280;61084;55.816;37.036;2022-12-18T04:49:05;99017.47;;;-3.93;71.37
72798;BME280;61084;55.816;37.036;2022-12-18T04:51:31;99024.31;;;-3.95;71.04
72798;BME280;61084;55.816;37.036;2022-12-18T04:53:57;99024.31;;;-3.96;71.52
72798;BME280;61084;55.816;37.036;2022-12-18T04:56:23;99030.28;;;-3.93;71.52
72798;BME280;61084;55.816;37.036;2022-12-18T04:58:49;99032.84;;;-3.90;71.46
72798;BME280;61084;55.816;37.036;2022-12-18T05:01:17;99041.38;;;-3.92;71.24
72798;BME280;61084;55.816;37.036;2022-12-18T05:03:43;99045.66;;;-3.90;71.49
72798;BME280;61084;55.816;37.036;2022-12-18T05:06:09;99039.69;;;-3.92;71.15
72798;BME280;61084;55.816;37.036;2022-12-18T05:08:35;99027.72;;;-3.94;71.14
72798;BME280;61084;55.816;37.036;2022-12-18T05:11:04;99026.03;;;-4.03;70.82
72798;BME280;61084;55.816;37.036;2022-12-18T05:13:30;99030.31;;;-4.14;70.99
72798;BME280;61084;55.816;37.036;2022-12-18T05:15:56;99028.59;;;-4.18;70.89
72798;BME280;61084;55.816;37.036;2022-12-18T05:18:23;99055.94;;;-4.14;71.04
72798;BME280;61084;55.816;37.036;2022-12-18T05:20:50;99060.19;;;-4.11;71.14
72798;BME280;61084;55.816;37.036;2022-12-18T05:23:17;99055.06;;;-4.16;71.04
72798;BME280;61084;55.816;37.036;2022-12-18T05:25:47;99053.34;;;-4.12;71.09
72798;BME280;61084;55.816;37.036;2022-12-18T05:28:14;99046.50;;;-4.09;71.21
72798;BME280;61084;55.816;37.036;2022-12-18T05:30:40;99063.59;;;-4.06;70.96
72798;BME280;61084;55.816;37.036;2022-12-18T05:33:06;99084.09;;;-4.06;70.77
72798;BME280;61084;55.816;37.036;2022-12-18T05:35:31;99078.09;;;-4.17;70.70
72798;BME280;61084;55.816;37.036;2022-12-18T05:37:57;99076.41;;;-4.15;70.96
72798;BME280;61084;55.816;37.036;2022-12-18T05:40:23;99078.97;;;-4.14;71.05
72798;BME280;61084;55.816;37.036;2022-12-18T05:42:49;99080.69;;;-4.13;71.15
72798;BME280;61084;55.816;37.036;2022-12-18T05:45:14;99084.97;;;-4.16;70.99
72798;BME280;61084;55.816;37.036;2022-12-18T05:47:40;99080.69;;;-4.14;71.08
72798;BME280;61084;55.816;37.036;2022-12-18T05:50:06;99088.38;;;-4.14;71.01
72798;BME280;61084;55.816;37.036;2022-12-18T05:52:32;99096.03;;;-4.13;71.10
72798;BME280;61084;55.816;37.036;2022-12-18T05:54:58;99095.22;;;-4.12;71.04
72798;BME280;61084;55.816;37.036;2022-12-18T05:57:24;99097.75;;;-4.10;71.49
72798;BME280;61084;55.816;37.036;2022-12-18T05:59:50;99099.47;;;-4.12;71.39
72798;BME280;61084;55.816;37.036;2022-12-18T06:02:16;99100.31;;;-4.10;71.25
72798;BME280;61084;55.816;37.036;2022-12-18T06:04:41;99100.34;;;-4.12;71.35
72798;BME280;61084;55.816;37.036;2022-12-18T06:07:07;99105.47;;;-4.13;71.33
72798;BME280;61084;55.816;37.036;2022-12-18T06:09:33;99115.69;;;-4.19;71.53
72798;BME280;61084;55.816;37.036;2022-12-18T06:11:59;99118.28;;;-4.18;71.76
72798;BME280;61084;55.816;37.036;2022-12-18T06:14:25;99128.50;;;-4.15;71.47
72798;BME280;61084;55.816;37.036;2022-12-18T06:16:51;99131.91;;;-4.13;71.49
72798;BME280;61084;55.816;37.036;2022-12-18T06:19:17;99141.31;;;-4.16;71.03
72798;BME280;61084;55.816;37.036;2022-12-18T06:21:43;99134.47;;;-4.19;71.01
72798;BME280;61084;55.816;37.036;2022-12-18T06:24:09;99143.88;;;-4.18;71.17
72798;BME280;61084;55.816;37.036;2022-12-18T06:26:38;99137.91;;;-4.12;70.72
72798;BME280;61084;55.816;37.036;2022-12-18T06:29:04;99146.44;;;-4.16;70.93
72798;BME280;61084;55.816;37.036;2022-12-18T06:31:30;99144.75;;;-4.16;70.88
72798;BME280;61084;55.816;37.036;2022-12-18T06:33:56;99158.38;;;-4.17;71.02
72798;BME280;61084;55.816;37.036;2022-12-18T06:36:22;99178.03;;;-4.17;71.02
72798;BME280;61084;55.816;37.036;2022-12-18T06:38:48;99184.03;;;-4.20;71.28
72798;BME280;61084;55.816;37.036;2022-12-18T06:41:16;99185.72;;;-4.17;71.18
72798;BME280;61084;55.816;37.036;2022-12-18T06:43:43;99184.00;;;-4.15;70.95
72798;BME280;61084;55.816;37.036;2022-12-18T06:46:09;99189.13;;;-4.15;70.99
72798;BME280;61084;55.816;37.036;2022-12-18T06:48:35;99198.56;;;-4.11;71.05
72798;BME280;61084;55.816;37.036;2022-12-18T06:51:01;99201.97;;;-4.03;71.15
72798;BME280;61084;55.816;37.036;2022-12-18T06:53:27;99213.97;;;-3.96;71.18
72798;BME280;61084;55.816;37.036;2022-12-18T06:56:03;99208.81;;;-3.89;70.71
72798;BME280;61084;55.816;37.036;2022-12-18T06:58:29;99212.22;;;-3.96;70.69
72798;BME280;61084;55.816;37.036;2022-12-18T07:01:00;99213.94;;;-3.98;70.28
72798;BME280;61084;55.816;37.036;2022-12-18T07:03:26;99219.09;;;-3.90;70.82
72798;BME280;61084;55.816;37.036;2022-12-18T07:05:52;99224.22;;;-3.96;70.46
72798;BME280;61084;55.816;37.036;2022-12-18T07:08:17;99219.06;;;-4.01;70.62
72798;BME280;61084;55.816;37.036;2022-12-18T07:10:43;99225.06;;;-3.99;70.69
72798;BME280;61084;55.816;37.036;2022-12-18T07:13:09;99233.59;;;-3.92;70.58
72798;BME280;61084;55.816;37.036;2022-12-18T07:15:36;99244.69;;;-3.95;70.48
72798;BME280;61084;55.816;37.036;2022-12-18T07:18:02;99261.78;;;-3.95;70.59
72798;BME280;61084;55.816;37.036;2022-12-18T07:20:27;99263.47;;;-3.97;70.49
72798;BME280;61084;55.816;37.036;2022-12-18T07:22:53;99271.19;;;-3.99;70.52
72798;BME280;61084;55.816;37.036;2022-12-18T07:25:19;99274.59;;;-3.98;70.64
72798;BME280;61084;55.816;37.036;2022-12-18T07:27:45;99275.47;;;-3.96;70.81
72798;BME280;61084;55.816;37.036;2022-12-18T07:30:11;99266.94;;;-3.92;70.83
72798;BME280;61084;55.816;37.036;2022-12-18T07:32:37;99267.78;;;-3.87;70.66
72798;BME280;61084;55.816;37.036;2022-12-18T07:35:03;99251.56;;;-3.82;70.55
72798;BME280;61084;55.816;37.036;2022-12-18T07:37:29;99243.88;;;-3.77;70.61
72798;BME280;61084;55.816;37.036;2022-12-18T07:39:55;99244.72;;;-3.69;70.63
72798;BME280;61084;55.816;37.036;2022-12-18T07:42:20;99241.31;;;-3.72;70.60
72798;BME280;61084;55.816;37.036;2022-12-18T07:44:59;99247.28;;;-3.69;70.44
72798;BME280;61084;55.816;37.036;2022-12-18T07:47:25;99259.28;;;-3.72;70.34
72798;BME280;61084;55.816;37.036;2022-12-18T07:49:51;99264.38;;;-3.75;70.42
72798;BME280;61084;55.816;37.036;2022-12-18T07:52:17;99275.50;;;-3.70;70.45
72798;BME280;61084;55.816;37.036;2022-12-18T07:54:43;99278.91;;;-3.67;70.71
72798;BME280;61084;55.816;37.036;2022-12-18T07:57:09;99277.22;;;-3.60;70.60
72798;BME280;61084;55.816;37.036;2022-12-18T07:59:35;99284.94;;;-3.56;70.15
72798;BME280;61084;55.816;37.036;2022-12-18T08:02:01;99275.53;;;-3.60;70.31
72798;BME280;61084;55.816;37.036;2022-12-18T08:04:26;99273.81;;;-3.56;70.54
72798;BME280;61084;55.816;37.036;2022-12-18T08:06:52;99286.63;;;-3.56;70.50
72798;BME280;61084;55.816;37.036;2022-12-18T08:09:18;99295.22;;;-3.48;70.53
72798;BME280;61084;55.816;37.036;2022-12-18T08:11:45;99312.31;;;-3.46;70.51
72798;BME280;61084;55.816;37.036;2022-12-18T08:14:10;99314.00;;;-3.45;70.32
72798;BME280;61084;55.816;37.036;2022-12-18T08:16:36;99314.00;;;-3.48;70.16
72798;BME280;61084;55.816;37.036;2022-12-18T08:19:03;99320.00;;;-3.44;70.36
72798;BME280;61084;55.816;37.036;2022-12-18T08:21:30;99329.41;;;-3.39;70.43
72798;BME280;61084;55.816;37.036;2022-12-18T08:23:57;99335.38;;;-3.37;70.77
72798;BME280;61084;55.816;37.036;2022-12-18T08:26:24;99343.94;;;-3.41;70.48
72798;BME280;61084;55.816;37.036;2022-12-18T08:28:51;99333.66;;;-3.45;70.51
72798;BME280;61084;55.816;37.036;2022-12-18T08:31:18;99337.13;;;-3.42;70.60
72798;BME280;61084;55.816;37.036;2022-12-18T08:33:44;99344.81;;;-3.42;70.57
72798;BME280;61084;55.816;37.036;2022-12-18T08:36:10;99343.09;;;-3.44;70.48
72798;BME280;61084;55.816;37.036;2022-12-18T08:38:36;99346.50;;;-3.47;70.48
72798;BME280;61084;55.816;37.036;2022-12-18T08:41:06;99349.09;;;-3.44;70.57
72798;BME280;61084;55.816;37.036;2022-12-18T08:43:32;99343.94;;;-3.36;70.58
72798;BME280;61084;55.816;37.036;2022-12-18T08:46:18;99349.94;;;-3.33;70.86
72798;BME280;61084;55.816;37.036;2022-12-18T08:48:44;99343.97;;;-3.32;70.70
72798;BME280;61084;55.816;37.036;2022-12-18T08:51:10;99356.75;;;-3.35;70.45
72798;BME280;61084;55.816;37.036;2022-12-18T08:53:37;99346.50;;;-3.30;70.51
72798;BME280;61084;55.816;37.036;2022-12-18T08:56:03;99358.47;;;-3.37;71.00
72798;BME280;61084;55.816;37.036;2022-12-18T08:58:30;99355.91;;;-3.38;70.95
72798;BME280;61084;55.816;37.036;2022-12-18T09:01:10;99359.34;;;-3.35;70.36
72798;BME280;61084;55.816;37.036;2022-12-18T09:03:36;99360.19;;;-3.39;71.31
72798;BME280;61084;55.816;37.036;2022-12-18T09:06:03;99354.19;;;-3.42;71.50
72798;BME280;61084;55.816;37.036;2022-12-18T09:08:28;99356.78;;;-3.38;71.38
72798;BME280;61084;55.816;37.036;2022-12-18T09:10:55;99359.34;;;-3.38;71.21
72798;BME280;61084;55.816;37.036;2022-12-18T09:13:20;99367.03;;;-3.38;71.35
72798;BME280;61084;55.816;37.036;2022-12-18T09:15:48;99367.03;;;-3.36;71.14
72798;BME280;61084;55.816;37.036;2022-12-18T09:18:16;99380.72;;;-3.40;70.67
72798;BME280;61084;55.816;37.036;2022-12-18T09:20:42;99384.13;;;-3.41;70.76
72798;BME280;61084;55.816;37.036;2022-12-18T09:23:09;99396.94;;;-3.43;70.82
72798;BME280;61084;55.816;37.036;2022-12-18T09:25:35;99400.34;;;-3.45;71.44
72798;BME280;61084;55.816;37.036;2022-12-18T09:28:03;99399.53;;;-3.40;71.50
72798;BME280;61084;55.816;37.036;2022-12-18T09:30:29;99429.47;;;-3.34;71.59
72798;BME280;61084;55.816;37.036;2022-12-18T09:32:55;99419.22;;;-3.37;71.96
72798;BME280;61084;55.816;37.036;2022-12-18T09:35:21;99424.34;;;-3.37;71.24
72798;BME280;61084;55.816;37.036;2022-12-18T09:37:47;99438.03;;;-3.34;71.26
72798;BME280;61084;55.816;37.036;2022-12-18T09:40:18;99448.31;;;-3.31;71.19
72798;BME280;61084;55.816;37.036;2022-12-18T09:42:51;99432.03;;;-3.33;71.09
72798;BME280;61084;55.816;37.036;2022-12-18T09:45:19;99440.59;;;-3.35;70.99
72798;BME280;61084;55.816;37.036;2022-12-18T09:47:46;99437.16;;;-3.34;71.46
72798;BME280;61084;55.816;37.036;2022-12-18T09:50:33;99446.59;;;-3.33;71.42
72798;BME280;61084;55.816;37.036;2022-12-18T09:53:21;99438.88;;;-3.36;70.88
72798;BME280;61084;55.816;37.036;2022-12-18T09:55:48;99449.09;;;-3.45;72.01
72798;BME280;61084;55.816;37.036;2022-12-18T10:00:55;99456.78;;;-3.47;71.43
72798;BME280;61084;55.816;37.036;2022-12-18T10:03:21;99454.25;;;-3.42;71.88
72798;BME280;61084;55.816;37.036;2022-12-18T10:13:43;99471.38;;;-3.34;71.20
72798;BME280;61084;55.816;37.036;2022-12-18T10:16:19;99468.78;;;-3.37;71.20
72798;BME280;61084;55.816;37.036;2022-12-18T10:21:26;99475.63;;;-3.33;71.40
72798;BME280;61084;55.816;37.036;2022-12-18T10:24:02;99484.22;;;-3.31;71.22
72798;BME280;61084;55.816;37.036;2022-12-18T10:26:34;99489.34;;;-3.32;71.25
72798;BME280;61084;55.816;37.036;2022-12-18T10:29:00;99476.50;;;-3.38;71.51
72798;BME280;61084;55.816;37.036;2022-12-18T10:31:27;99483.31;;;-3.39;71.56
72798;BME280;61084;55.816;37.036;2022-12-18T10:33:55;99481.66;;;-3.35;71.64
72798;BME280;61084;55.816;37.036;2022-12-18T10:36:23;99488.50;;;-3.28;71.13
72798;BME280;61084;55.816;37.036;2022-12-18T10:38:49;99484.22;;;-3.31;72.02
72798;BME280;61084;55.816;37.036;2022-12-18T10:43:46;99490.19;;;-3.30;71.51
72798;BME280;61084;55.816;37.036;2022-12-18T10:46:21;99507.31;;;-3.28;71.45
72798;BME280;61084;55.816;37.036;2022-12-18T10:51:28;99504.75;;;-3.26;71.61
72798;BME280;61084;55.816;37.036;2022-12-18T10:54:04;99509.91;;;-3.23;71.29
72798;BME280;61084;55.816;37.036;2022-12-18T10:56:31;99520.16;;;-3.25;71.59
72798;BME280;61084;55.816;37.036;2022-12-18T10:59:02;99517.56;;;-3.29;71.23
72798;BME280;61084;55.816;37.036;2022-12-18T11:01:49;99522.75;;;-3.20;71.36
72798;BME280;61084;55.816;37.036;2022-12-18T11:04:19;99528.72;;;-3.15;71.08
72798;BME280;61084;55.816;37.036;2022-12-18T11:07:12;99520.22;;;-3.11;71.24
72798;BME280;61084;55.816;37.036;2022-12-18T11:09:39;99521.88;;;-3.19;71.13
72798;BME280;61084;55.816;37.036;2022-12-18T11:12:19;99513.31;;;-3.27;71.21
72798;BME280;61084;55.816;37.036;2022-12-18T11:17:23;99526.97;;;-3.34;71.21
72798;BME280;61084;55.816;37.036;2022-12-18T11:19:59;99533.81;;;-3.33;71.35
72798;BME280;61084;55.816;37.036;2022-12-18T11:22:27;99532.97;;;-3.35;71.11
72798;BME280;61084;55.816;37.036;2022-12-18T11:25:18;99527.78;;;-3.37;71.33
72798;BME280;61084;55.816;37.036;2022-12-18T11:27:50;99530.38;;;-3.35;71.31
72798;BME280;61084;55.816;37.036;2022-12-18T11:32:47;99537.22;;;-3.34;71.25
72798;BME280;61084;55.816;37.036;2022-12-18T11:35:37;99541.47;;;-3.35;71.34
72798;BME280;61084;55.816;37.036;2022-12-18T11:40:49;99560.31;;;-3.36;71.37
72798;BME280;61084;55.816;37.036;2022-12-18T11:43:27;99556.91;;;-3.33;71.37
72798;BME280;61084;55.816;37.036;2022-12-18T11:46:14;99558.59;;;-3.32;71.38
72798;BME280;61084;55.816;37.036;2022-12-18T11:49:07;99571.44;;;-3.32;71.31
72798;BME280;61084;55.816;37.036;2022-12-18T11:51:58;99573.13;;;-3.36;72.79
72798;BME280;61084;55.816;37.036;2022-12-18T11:54:24;99582.56;;;-3.33;72.57
72798;BME280;61084;55.816;37.036;2022-12-18T11:57:13;99584.28;;;-3.28;71.96
72798;BME280;61084;55.816;37.036;2022-12-18T12:11:21;99621.09;;;-3.23;71.61
72798;BME280;61084;55.816;37.036;2022-12-18T12:16:57;99625.34;;;-3.29;72.04
72798;BME280;61084;55.816;37.036;2022-12-18T12:20:28;99622.81;;;-3.25;71.71
72798;BME280;61084;55.816;37.036;2022-12-18T12:28:06;99643.38;;;-3.17;71.39
72798;BME280;61084;55.816;37.036;2022-12-18T12:38:49;99666.50;;;-3.13;71.11
72798;BME280;61084;55.816;37.036;2022-12-18T12:41:19;99676.72;;;-3.17;71.18
72798;BME280;61084;55.816;37.036;2022-12-18T12:44:08;99683.56;;;-3.21;71.51
72798;BME280;61084;55.816;37.036;2022-12-18T12:46:41;99684.44;;;-3.19;71.15
72798;BME280;61084;55.816;37.036;2022-12-18T12:49:21;99694.66;;;-3.25;71.34
72798;BME280;61084;55.816;37.036;2022-12-18T12:52:00;99705.75;;;-3.26;71.51
72798;BME280;61084;55.816;37.036;2022-12-18T12:54:31;99696.34;;;-3.27;71.68
72798;BME280;61084;55.816;37.036;2022-12-18T12:57:06;99700.63;;;-3.27;71.48
72798;BME280;61084;55.816;37.036;2022-12-18T12:59:56;99710.88;;;-3.26;71.49
72798;BME280;61084;55.816;37.036;2022-12-18T13:07:47;99728.81;;;-3.30;71.76
72798;BME280;61084;55.816;37.036;2022-12-18T13:13:07;99734.84;;;-3.27;71.53
72798;BME280;61084;55.816;37.036;2022-12-18T13:15:41;99746.84;;;-3.21;71.47
72798;BME280;61084;55.816;37.036;2022-12-18T13:18:17;99753.72;;;-3.20;71.72
72798;BME280;61084;55.816;37.036;2022-12-18T13:26:36;99770.84;;;-3.15;71.15
72798;BME280;61084;55.816;37.036;2022-12-18T13:34:24;99784.47;;;-3.23;70.61
72798;BME280;61084;55.816;37.036;2022-12-18T13:36:51;99791.31;;;-3.24;70.77
72798;BME280;61084;55.816;37.036;2022-12-18T13:41:45;99806.75;;;-3.21;70.55
72798;BME280;61084;55.816;37.036;2022-12-18T13:46:56;99812.63;;;-3.34;70.42
72798;BME280;61084;55.816;37.036;2022-12-18T13:49:27;99812.53;;;-3.41;70.45
72798;BME280;61084;55.816;37.036;2022-12-18T13:51:55;99826.19;;;-3.48;70.64
72798;BME280;61084;55.816;37.036;2022-12-18T13:54:35;99832.94;;;-3.53;70.52
72798;BME280;61084;55.816;37.036;2022-12-18T13:57:02;99830.38;;;-3.52;70.68
72798;BME280;61084;55.816;37.036;2022-12-18T13:59:36;99842.34;;;-3.54;70.87
72798;BME280;61084;55.816;37.036;2022-12-18T14:02:21;99845.78;;;-3.52;70.48
72798;BME280;61084;55.816;37.036;2022-12-18T14:04:48;99846.59;;;-3.54;70.62
72798;BME280;61084;55.816;37.036;2022-12-18T14:07:17;99851.72;;;-3.57;70.51
72798;BME280;61084;55.816;37.036;2022-12-18T14:09:46;99856.88;;;-3.56;70.62
72798;BME280;61084;55.816;37.036;2022-12-18T14:12:22;99867.16;;;-3.53;70.72
72798;BME280;61084;55.816;37.036;2022-12-18T14:20:55;99879.13;;;-3.52;70.57
72798;BME280;61084;55.816;37.036;2022-12-18T14:23:39;99895.34;;;-3.56;70.46
72798;BME280;61084;55.816;37.036;2022-12-18T14:26:35;99887.53;;;-3.65;70.28
72798;BME280;61084;55.816;37.036;2022-12-18T14:32:19;99901.09;;;-3.73;70.45
72798;BME280;61084;55.816;37.036;2022-12-18T14:34:52;99905.31;;;-3.80;70.52
72798;BME280;61084;55.816;37.036;2022-12-18T14:37:26;99924.13;;;-3.81;70.60
72798;BME280;61084;55.816;37.036;2022-12-18T14:40:03;99929.25;;;-3.79;70.41
72798;BME280;61084;55.816;37.036;2022-12-18T14:42:30;99928.38;;;-3.82;70.24
72798;BME280;61084;55.816;37.036;2022-12-18T14:45:52;99942.06;;;-3.78;70.57
72798;BME280;61084;55.816;37.036;2022-12-18T14:50:54;99936.13;;;-3.77;70.51
72798;BME280;61084;55.816;37.036;2022-12-18T14:53:24;99942.91;;;-3.81;70.46
72798;BME280;61084;55.816;37.036;2022-12-18T14:55:54;99948.75;;;-3.89;69.96
72798;BME280;61084;55.816;37.036;2022-12-18T14:58:20;99948.69;;;-3.95;69.97